createdAt,value
2022-10-05T00:00:24.930Z,4.47
2022-10-05T00:02:54.416Z,3.08
2022-10-05T00:05:32.815Z,3.15
2022-10-05T00:08:25.312Z,3.13
2022-10-05T00:10:54.808Z,3.10
2022-10-05T00:15:49.950Z,2.97
2022-10-05T00:18:19.529Z,3.50
2022-10-05T00:20:47.160Z,3.38
2022-10-05T00:23:28.794Z,3.17
2022-10-05T00:26:00.480Z,3.03
2022-10-05T00:28:30.449Z,2.97
2022-10-05T00:31:01.114Z,3.10
2022-10-05T00:33:30.775Z,3.03
2022-10-05T00:36:02.145Z,3.30
2022-10-05T00:41:05.033Z,2.88
2022-10-05T00:44:10.971Z,3.00
2022-10-05T00:47:28.347Z,3.22
2022-10-05T00:50:13.106Z,2.92
2022-10-05T00:52:52.006Z,3.58
2022-10-05T00:55:38.009Z,3.15
2022-10-05T00:58:16.659Z,3.45
2022-10-05T01:00:51.693Z,3.00
2022-10-05T01:03:59.864Z,2.75
2022-10-05T01:06:42.801Z,2.75
2022-10-05T01:09:22.603Z,2.70
2022-10-05T01:12:06.742Z,3.33
2022-10-05T01:14:56.419Z,2.67
2022-10-05T01:17:51.364Z,3.63
2022-10-05T01:20:42.518Z,2.65
2022-10-05T01:23:15.128Z,2.63
2022-10-05T01:25:56.575Z,2.50
2022-10-05T01:28:30.680Z,2.83
2022-10-05T01:31:06.308Z,2.67
2022-10-05T01:33:57.367Z,2.75
2022-10-05T01:36:48.545Z,2.60
2022-10-05T01:39:35.450Z,3.30
2022-10-05T01:42:11.249Z,2.90
2022-10-05T01:44:48.417Z,2.95
2022-10-05T01:47:28.369Z,3.58
2022-10-05T01:50:11.358Z,3.97
2022-10-05T01:52:47.499Z,3.72
2022-10-05T01:55:37.603Z,3.38
2022-10-05T01:58:23.495Z,3.45
2022-10-05T02:01:12.288Z,3.70
2022-10-05T02:04:56.546Z,3.47
2022-10-05T02:07:15.476Z,3.92
2022-10-05T02:10:14.984Z,3.08
2022-10-05T02:12:48.970Z,4.07
2022-10-05T02:15:19.971Z,4.18
2022-10-05T02:17:53.080Z,3.60
2022-10-05T02:20:26.239Z,4.22
2022-10-05T02:23:04.333Z,3.58
2022-10-05T02:25:34.641Z,4.28
2022-10-05T02:28:09.291Z,3.70
2022-10-05T02:30:47.390Z,3.70
2022-10-05T02:33:27.506Z,3.45
2022-10-05T02:35:56.572Z,4.13
2022-10-05T02:38:34.214Z,3.42
2022-10-05T02:41:39.754Z,3.60
2022-10-05T02:44:32.479Z,3.83
2022-10-05T02:47:10.855Z,3.15
2022-10-05T02:49:46.565Z,3.78
2022-10-05T02:52:19.417Z,2.70
2022-10-05T02:55:03.761Z,2.95
2022-10-05T02:57:40.280Z,3.58
2022-10-05T03:00:18.583Z,2.50
2022-10-05T03:03:06.136Z,2.63
2022-10-05T03:05:41.986Z,3.03
2022-10-05T03:08:17.743Z,2.92
2022-10-05T03:11:07.264Z,3.08
2022-10-05T03:13:42.953Z,3.28
2022-10-05T03:16:29.017Z,2.85
2022-10-05T03:19:22.726Z,3.33
2022-10-05T03:22:07.498Z,2.97
2022-10-05T03:24:56.449Z,3.47
2022-10-05T03:27:41.771Z,3.13
2022-10-05T03:30:21.798Z,2.50
2022-10-05T03:33:15.679Z,3.13
2022-10-05T03:36:18.700Z,3.40
2022-10-05T03:38:52.371Z,3.78
2022-10-05T03:41:51.411Z,4.03
2022-10-05T03:47:49.722Z,3.17
2022-10-05T03:50:24.041Z,2.90
2022-10-05T03:52:56.620Z,2.58
2022-10-05T03:55:44.456Z,3.20
2022-10-05T03:58:21.133Z,3.10
2022-10-05T04:00:53.433Z,3.40
2022-10-05T04:03:33.810Z,2.97
2022-10-05T04:06:16.170Z,2.70
2022-10-05T04:08:50.246Z,3.00
2022-10-05T04:11:42.900Z,3.13
2022-10-05T04:14:17.963Z,2.95
2022-10-05T04:17:02.458Z,2.90
2022-10-05T04:19:38.439Z,3.08
2022-10-05T04:22:20.306Z,3.03
2022-10-05T04:24:55.554Z,3.42
2022-10-05T04:27:26.215Z,3.10
2022-10-05T04:30:00.910Z,3.40
2022-10-05T04:32:41.549Z,3.55
2022-10-05T04:35:31.556Z,3.60
2022-10-05T04:38:17.915Z,3.10
2022-10-05T04:40:58.412Z,3.08
2022-10-05T04:43:36.896Z,3.28
2022-10-05T04:46:37.697Z,3.63
2022-10-05T04:49:08.163Z,3.25
2022-10-05T04:51:38.424Z,4.43
2022-10-05T04:54:14.057Z,3.22
2022-10-05T04:56:53.598Z,3.55
2022-10-05T04:59:36.321Z,5.32
2022-10-05T05:02:21.227Z,3.63
2022-10-05T05:05:09.223Z,4.07
2022-10-05T05:07:45.061Z,4.22
2022-10-05T05:10:29.373Z,4.68
2022-10-05T05:13:19.865Z,4.60
2022-10-05T05:15:51.622Z,7.75
2022-10-05T05:18:36.768Z,5.13
2022-10-05T05:21:30.152Z,5.00
2022-10-05T05:24:25.958Z,4.40
2022-10-05T05:27:08.395Z,5.25
2022-10-05T05:29:53.553Z,5.05
2022-10-05T05:32:26.045Z,4.55
2022-10-05T05:35:07.554Z,4.95
2022-10-05T05:38:15.740Z,3.75
2022-10-05T05:41:06.872Z,4.55
2022-10-05T05:43:46.899Z,4.47
2022-10-05T05:46:30.075Z,3.83
2022-10-05T05:49:20.169Z,3.40
2022-10-05T05:52:00.294Z,4.50
2022-10-05T05:54:34.442Z,5.05
2022-10-05T05:57:11.051Z,4.90
2022-10-05T06:00:03.779Z,4.28
2022-10-05T06:02:50.263Z,5.30
2022-10-05T06:05:31.138Z,4.65
2022-10-05T06:08:39.362Z,4.13
2022-10-05T06:11:35.472Z,4.18
2022-10-05T06:14:09.287Z,4.30
2022-10-05T06:16:43.138Z,4.00
2022-10-05T06:19:15.760Z,4.85
2022-10-05T06:22:06.878Z,4.22
2022-10-05T06:24:45.605Z,5.20
2022-10-05T06:27:38.770Z,4.53
2022-10-05T06:30:10.091Z,4.57
2022-10-05T06:32:50.165Z,4.40
2022-10-05T06:35:42.380Z,3.97
2022-10-05T06:38:24.368Z,4.47
2022-10-05T06:40:57.911Z,4.72
2022-10-05T06:43:58.908Z,3.83
2022-10-05T06:47:07.472Z,4.40
2022-10-05T06:50:37.072Z,4.50
2022-10-05T06:53:39.916Z,4.32
2022-10-05T06:56:21.176Z,4.13
2022-10-05T06:58:51.603Z,4.30
2022-10-05T07:01:27.507Z,4.60
2022-10-05T07:04:16.461Z,4.95
2022-10-05T07:06:51.253Z,4.07
2022-10-05T07:09:40.639Z,4.78
2022-10-05T07:12:41.408Z,3.72
2022-10-05T07:15:09.698Z,4.57
2022-10-05T07:18:02.743Z,4.13
2022-10-05T07:20:31.825Z,5.00
2022-10-05T07:23:36.787Z,4.50
2022-10-05T07:26:18.138Z,5.38
2022-10-05T07:29:12.860Z,4.63
2022-10-05T07:31:49.566Z,4.55
2022-10-05T07:34:43.110Z,6.65
2022-10-05T07:37:31.688Z,5.72
2022-10-05T07:40:27.896Z,6.05
2022-10-05T07:43:57.526Z,5.85
2022-10-05T07:46:32.293Z,6.00
2022-10-05T07:49:50.247Z,5.78
2022-10-05T07:52:23.164Z,5.90
2022-10-05T07:54:52.927Z,5.70
2022-10-05T07:57:38.795Z,6.05
2022-10-05T08:00:09.338Z,6.03
2022-10-05T08:02:55.360Z,6.47
2022-10-05T08:05:41.370Z,5.80
2022-10-05T08:08:13.177Z,5.93
2022-10-05T08:10:57.369Z,7.05
2022-10-05T08:13:45.747Z,7.05
2022-10-05T08:16:12.774Z,6.63
2022-10-05T08:18:45.470Z,6.32
2022-10-05T08:21:14.124Z,6.10
2022-10-05T08:24:04.568Z,6.90
2022-10-05T08:26:40.534Z,6.78
2022-10-05T08:29:49.590Z,7.65
2022-10-05T08:33:00.728Z,7.38
2022-10-05T08:35:37.764Z,8.70
2022-10-05T08:38:13.641Z,7.72
2022-10-05T08:41:10.180Z,8.55
2022-10-05T08:43:51.351Z,8.75
2022-10-05T08:46:36.953Z,8.85
2022-10-05T08:49:22.033Z,7.97
2022-10-05T08:52:06.931Z,8.35
2022-10-05T08:54:39.164Z,7.28
2022-10-05T08:57:27.479Z,6.90
2022-10-05T09:00:14.344Z,5.33
2022-10-05T09:03:08.222Z,6.53
2022-10-05T09:05:58.344Z,6.60
2022-10-05T09:08:55.632Z,7.15
2022-10-05T09:11:46.779Z,7.85
2022-10-05T09:14:22.860Z,8.02
2022-10-05T09:17:11.333Z,9.25
2022-10-05T09:19:59.065Z,8.85
2022-10-05T09:22:26.023Z,9.73
2022-10-05T09:24:57.254Z,10.32
2022-10-05T09:27:36.474Z,10.18
2022-10-05T09:30:53.753Z,9.18
2022-10-05T09:33:31.858Z,8.88
2022-10-05T09:36:07.424Z,8.63
2022-10-05T09:39:11.887Z,8.20
2022-10-05T09:41:58.996Z,7.82
2022-10-05T09:44:45.616Z,7.35
2022-10-05T09:47:33.472Z,6.53
2022-10-05T09:50:38.041Z,6.50
2022-10-05T09:53:52.347Z,6.20
2022-10-05T09:56:40.809Z,5.63
2022-10-05T09:59:16.618Z,6.30
2022-10-05T10:01:46.679Z,5.50
2022-10-05T10:04:16.691Z,6.40
2022-10-05T10:06:52.243Z,5.32
2022-10-05T10:09:21.613Z,6.47
2022-10-05T10:12:11.322Z,4.28
2022-10-05T10:15:05.431Z,4.97
2022-10-05T10:18:03.173Z,6.45
2022-10-05T10:20:35.895Z,4.82
2022-10-05T10:23:26.957Z,5.20
2022-10-05T10:26:27.679Z,4.82
2022-10-05T10:29:02.852Z,3.40
2022-10-05T10:31:51.200Z,3.00
2022-10-05T10:34:43.903Z,3.28
2022-10-05T10:37:25.742Z,5.35
2022-10-05T10:40:11.633Z,3.28
2022-10-05T10:43:01.631Z,3.70
2022-10-05T10:45:44.153Z,4.90
2022-10-05T10:48:30.956Z,4.43
2022-10-05T10:51:16.693Z,4.63
2022-10-05T10:54:03.684Z,4.55
2022-10-05T10:57:06.038Z,4.07
2022-10-05T11:00:11.193Z,4.40
2022-10-05T11:02:40.188Z,4.28
2022-10-05T11:05:19.100Z,4.28
2022-10-05T11:08:08.192Z,4.80
2022-10-05T11:11:06.632Z,4.60
2022-10-05T11:13:52.649Z,4.63
2022-10-05T11:16:31.469Z,5.18
2022-10-05T11:19:35.155Z,4.90
2022-10-05T11:22:40.170Z,4.57
2022-10-05T11:25:25.348Z,4.35
2022-10-05T11:28:14.322Z,4.85
2022-10-05T11:31:31.148Z,4.38
2022-10-05T11:34:36.102Z,4.93
2022-10-05T11:37:33.076Z,5.22
2022-10-05T11:40:21.048Z,5.00
2022-10-05T11:42:50.643Z,5.40
2022-10-05T11:45:43.445Z,5.90
2022-10-05T11:48:28.970Z,5.13
2022-10-05T11:51:18.865Z,5.65
2022-10-05T11:54:27.587Z,5.88
2022-10-05T11:59:49.197Z,7.00
2022-10-05T12:02:47.409Z,6.68
2022-10-05T12:05:43.225Z,5.80
2022-10-05T12:08:34.850Z,6.07
2022-10-05T12:11:08.156Z,6.38
2022-10-05T12:13:46.134Z,6.30
2022-10-05T12:16:38.325Z,5.90
2022-10-05T12:19:28.685Z,5.85
2022-10-05T12:22:10.685Z,5.85
2022-10-05T12:24:39.573Z,6.07
2022-10-05T12:27:16.971Z,5.55
2022-10-05T12:30:03.300Z,4.63
2022-10-05T12:32:40.406Z,4.68
2022-10-05T12:35:43.895Z,4.57
2022-10-05T12:38:18.416Z,4.50
2022-10-05T12:40:52.028Z,4.15
2022-10-05T12:43:49.662Z,4.18
2022-10-05T12:46:37.893Z,4.57
2022-10-05T12:49:07.417Z,3.92
2022-10-05T12:51:42.283Z,4.85
2022-10-05T12:54:30.592Z,4.55
2022-10-05T12:57:43.275Z,4.35
2022-10-05T13:00:20.420Z,3.30
2022-10-05T13:02:51.423Z,3.05
2022-10-05T13:05:33.178Z,2.65
2022-10-05T13:08:12.889Z,3.25
2022-10-05T13:11:01.961Z,3.22
2022-10-05T13:13:44.068Z,2.83
2022-10-05T13:16:34.713Z,2.58
2022-10-05T13:19:07.145Z,3.17
2022-10-05T13:21:48.991Z,1.95
2022-10-05T13:24:28.733Z,1.75
2022-10-05T13:27:09.456Z,1.58
2022-10-05T13:29:51.021Z,0.80
2022-10-05T13:33:02.833Z,1.15
2022-10-05T13:38:36.812Z,0.90
2022-10-05T13:41:24.543Z,1.05
2022-10-05T13:44:22.313Z,1.00
2022-10-05T13:46:53.890Z,1.05
2022-10-05T13:49:22.135Z,1.65
2022-10-05T13:52:13.819Z,1.17
2022-10-05T13:54:49.861Z,0.93
2022-10-05T13:57:33.738Z,0.77
2022-10-05T14:00:15.238Z,1.02
2022-10-05T14:02:47.364Z,0.80
2022-10-05T14:05:26.878Z,0.88
2022-10-05T14:08:04.238Z,1.05
2022-10-05T14:10:40.852Z,0.95
2022-10-05T14:13:29.205Z,0.70
2022-10-05T14:16:04.672Z,1.05
2022-10-05T14:18:34.156Z,1.35
2022-10-05T14:21:08.301Z,1.27
2022-10-05T14:23:38.340Z,1.65
2022-10-05T14:26:23.819Z,1.23
2022-10-05T14:28:58.690Z,2.53
2022-10-05T14:32:15.294Z,1.08
2022-10-05T14:35:05.270Z,1.17
2022-10-05T14:37:43.347Z,1.30
2022-10-05T14:40:31.484Z,1.40
2022-10-05T14:43:04.603Z,1.38
2022-10-05T14:45:33.660Z,1.45
2022-10-05T14:48:00.330Z,2.03
2022-10-05T14:50:31.742Z,2.65
2022-10-05T14:53:21.981Z,2.05
2022-10-05T14:56:17.168Z,1.80
2022-10-05T14:58:56.438Z,1.65
2022-10-05T15:01:26.302Z,2.95
2022-10-05T15:04:08.432Z,2.10
2022-10-05T15:06:45.233Z,1.77
2022-10-05T15:09:28.559Z,1.38
2022-10-05T15:11:57.964Z,1.38
2022-10-05T15:14:31.935Z,1.25
2022-10-05T15:17:03.736Z,2.05
2022-10-05T15:19:36.800Z,1.70
2022-10-05T15:22:15.735Z,1.52
2022-10-05T15:24:53.038Z,1.58
2022-10-05T15:27:41.358Z,1.52
2022-10-05T15:30:18.233Z,1.48
2022-10-05T15:33:05.204Z,1.98
2022-10-05T15:35:41.552Z,1.88
2022-10-05T15:38:21.259Z,2.00
2022-10-05T15:40:50.878Z,1.90
2022-10-05T15:43:24.753Z,1.55
2022-10-05T15:46:15.982Z,1.80
2022-10-05T15:49:22.773Z,1.85
2022-10-05T15:52:40.475Z,2.13
2022-10-05T15:55:25.003Z,1.77
2022-10-05T15:58:31.363Z,2.92
2022-10-05T16:01:21.439Z,2.30
2022-10-05T16:03:51.305Z,1.83
2022-10-05T16:06:59.314Z,1.83
2022-10-05T16:09:57.063Z,3.40
2022-10-05T16:12:49.674Z,2.13
2022-10-05T16:15:35.992Z,1.70
2022-10-05T16:18:36.058Z,2.00
2022-10-05T16:21:14.111Z,1.67
2022-10-05T16:24:05.827Z,1.88
2022-10-05T16:26:56.253Z,1.50
2022-10-05T16:29:25.507Z,1.90
2022-10-05T16:32:18.760Z,1.60
2022-10-05T16:35:10.822Z,2.10
2022-10-05T16:38:09.785Z,1.67
2022-10-05T16:40:41.725Z,1.40
2022-10-05T16:43:30.238Z,1.63
2022-10-05T16:46:27.954Z,2.10
2022-10-05T16:49:24.057Z,3.28
2022-10-05T16:52:00.823Z,2.00
2022-10-05T16:54:47.690Z,2.05
2022-10-05T16:57:17.830Z,2.20
2022-10-05T17:00:16.034Z,1.83
2022-10-05T17:03:16.680Z,2.30
2022-10-05T17:06:08.586Z,2.20
2022-10-05T17:09:08.950Z,2.78
2022-10-05T17:11:59.695Z,2.97
2022-10-05T17:14:52.575Z,2.30
2022-10-05T17:17:34.486Z,3.00
2022-10-05T17:20:19.419Z,2.53
2022-10-05T17:22:52.430Z,2.63
2022-10-05T17:25:24.296Z,2.67
2022-10-05T17:27:55.677Z,3.03
2022-10-05T17:30:27.507Z,3.35
2022-10-05T17:33:03.313Z,3.50
2022-10-05T17:35:58.398Z,3.00
2022-10-05T17:38:31.291Z,3.60
2022-10-05T17:41:01.083Z,3.50
2022-10-05T17:43:33.569Z,3.10
2022-10-05T17:46:00.975Z,3.90
2022-10-05T17:49:03.997Z,3.40
2022-10-05T17:51:51.776Z,3.97
2022-10-05T17:54:45.225Z,3.13
2022-10-05T17:57:11.831Z,4.10
2022-10-05T17:59:56.806Z,3.45
2022-10-05T18:02:37.519Z,4.65
2022-10-05T18:05:14.524Z,3.67
2022-10-05T18:07:42.712Z,3.92
2022-10-05T18:10:20.459Z,3.40
2022-10-05T18:13:21.184Z,4.72
2022-10-05T18:15:49.267Z,3.95
2022-10-05T18:18:43.542Z,3.83
2022-10-05T18:21:13.465Z,4.40
2022-10-05T18:23:59.326Z,4.38
2022-10-05T18:26:35.022Z,4.68
2022-10-05T18:29:43.360Z,4.05
2022-10-05T18:32:20.896Z,4.35
2022-10-05T18:35:02.009Z,4.13
2022-10-05T18:37:57.251Z,4.78
2022-10-05T18:40:24.049Z,4.72
2022-10-05T18:42:53.910Z,5.80
2022-10-05T18:45:29.842Z,4.55
2022-10-05T18:48:07.586Z,4.32
2022-10-05T18:50:40.430Z,4.97
2022-10-05T18:53:59.600Z,4.90
2022-10-05T18:56:38.951Z,4.63
2022-10-05T18:59:43.365Z,4.65
2022-10-05T19:02:23.123Z,5.35
2022-10-05T19:05:05.039Z,5.03
2022-10-05T19:07:38.513Z,4.93
2022-10-05T19:10:11.197Z,5.03
2022-10-05T19:13:02.481Z,4.30
2022-10-05T19:15:42.824Z,4.80
2022-10-05T19:18:30.251Z,4.60
2022-10-05T19:21:21.450Z,4.53
2022-10-05T19:24:04.401Z,4.40
2022-10-05T19:26:55.417Z,4.88
2022-10-05T19:29:41.534Z,4.50
2022-10-05T19:32:18.934Z,3.58
2022-10-05T19:35:06.077Z,4.60
2022-10-05T19:40:58.632Z,4.38
2022-10-05T19:43:41.919Z,4.20
2022-10-05T19:46:20.486Z,4.47
2022-10-05T19:48:49.199Z,5.10
2022-10-05T19:51:29.481Z,5.35
2022-10-05T19:54:02.575Z,5.07
2022-10-05T19:56:41.012Z,5.32
2022-10-05T19:59:13.904Z,6.25
2022-10-05T20:01:48.536Z,5.43
2022-10-05T20:04:33.331Z,5.03
2022-10-05T20:07:02.261Z,4.53
2022-10-05T20:09:29.958Z,5.15
2022-10-05T20:11:56.938Z,5.05
2022-10-05T20:14:33.735Z,4.38
2022-10-05T20:17:59.257Z,5.95
2022-10-05T20:20:34.802Z,5.43
2022-10-05T20:23:22.134Z,4.85
2022-10-05T20:26:10.596Z,5.50
2022-10-05T20:28:39.660Z,4.95
2022-10-05T20:31:10.384Z,4.72
2022-10-05T20:33:42.856Z,6.47
2022-10-05T20:36:09.735Z,5.22
2022-10-05T20:38:40.862Z,5.18
2022-10-05T20:41:10.372Z,4.93
2022-10-05T20:43:42.042Z,5.40
2022-10-05T20:48:37.798Z,5.53
2022-10-05T20:51:06.964Z,5.90
2022-10-05T20:53:33.686Z,5.68
2022-10-05T20:56:04.589Z,7.07
2022-10-05T20:58:31.661Z,6.93
2022-10-05T21:01:18.423Z,4.97
2022-10-05T21:03:46.485Z,6.00
2022-10-05T21:06:13.169Z,5.03
2022-10-05T21:08:42.278Z,5.43
2022-10-05T21:11:11.211Z,5.50
2022-10-05T21:13:42.801Z,6.88
2022-10-05T21:16:12.999Z,7.22
2022-10-05T21:18:40.316Z,8.75
2022-10-05T21:21:07.475Z,6.03
2022-10-05T21:23:34.585Z,6.60
2022-10-05T21:26:01.728Z,7.57
2022-10-05T21:28:28.908Z,6.90
2022-10-05T21:30:58.271Z,7.28
2022-10-05T21:33:25.389Z,7.15
2022-10-05T21:35:54.536Z,7.22
2022-10-05T21:38:21.622Z,6.78
2022-10-05T21:40:48.301Z,8.85
2022-10-05T21:43:17.760Z,7.50
2022-10-05T21:45:46.998Z,7.43
2022-10-05T21:48:17.541Z,7.40
2022-10-05T21:50:49.978Z,6.95
2022-10-05T21:53:21.863Z,8.20
2022-10-05T21:55:52.747Z,7.47
2022-10-05T21:58:21.402Z,8.43
2022-10-05T22:00:48.312Z,7.60
2022-10-05T22:03:15.452Z,8.40
2022-10-05T22:05:44.271Z,10.43
2022-10-05T22:08:27.192Z,9.98
2022-10-05T22:10:54.792Z,10.40
2022-10-05T22:13:25.588Z,10.73
2022-10-05T22:15:58.977Z,10.43
2022-10-05T22:18:26.892Z,10.30
2022-10-05T22:20:55.984Z,11.27
2022-10-05T22:23:22.873Z,10.57
2022-10-05T22:25:52.233Z,10.82
2022-10-05T22:30:47.824Z,12.68
2022-10-05T22:33:14.551Z,11.00
2022-10-05T22:35:41.273Z,10.48
2022-10-05T22:38:10.193Z,10.40
2022-10-05T22:40:36.946Z,10.13
2022-10-05T22:43:05.996Z,10.68
2022-10-05T22:45:35.029Z,11.25
2022-10-05T22:48:04.460Z,11.25
2022-10-05T22:53:02.368Z,10.00
2022-10-05T22:55:29.618Z,10.75
2022-10-05T22:57:56.418Z,10.05
2022-10-05T23:00:35.207Z,10.48
2022-10-05T23:03:12.232Z,10.25
2022-10-05T23:05:39.070Z,11.32
2022-10-05T23:08:05.768Z,10.85
2022-10-05T23:10:34.932Z,10.95
2022-10-05T23:13:04.958Z,10.18
2022-10-05T23:15:31.694Z,10.68
2022-10-05T23:17:58.723Z,11.25
2022-10-05T23:20:26.027Z,11.13
2022-10-05T23:22:52.779Z,10.90
2022-10-05T23:25:19.616Z,10.27
2022-10-05T23:27:48.707Z,10.48
2022-10-05T23:30:19.880Z,10.00
2022-10-05T23:32:46.555Z,9.35
2022-10-05T23:35:16.108Z,10.38
2022-10-05T23:37:44.119Z,9.48
2022-10-05T23:40:13.130Z,9.70
2022-10-05T23:42:40.825Z,9.00
2022-10-05T23:45:13.955Z,8.95
2022-10-05T23:47:46.160Z,8.63
2022-10-05T23:50:13.498Z,8.70
2022-10-05T23:52:40.200Z,10.10
2022-10-05T23:55:07.314Z,8.60
2022-10-05T23:57:34.094Z,8.13
